メインページ
METAR-TAF:

METAR-TAF

空港 :

北九州空港

北九州, 日本

緯度: 33-50N, 経度: 130-57E, 海抜: 3m

現時点の気象観測

当レポートは57分前の12:00(UTC)に作成
の風 7kt
気温 19°C
湿度 56%
気圧 1012 hPa
視程10km以上
高度3000ftの雲はほとんどない
高度9000ftの千切れ雲あり

METAR: RJFR 161200Z 36007KT 9999 FEW030 BKN090 19/10 Q1012

時間: 21:57 (12:57 UTC)

予報

当レポートは1時間48分前の11:09(UTC)に作成
予報は16日の 12時(UTC)から 17日の 18時(UTC)まで有効
の風 8kt
視程10km以上
高度3000ftの雲はほとんどない
17日の 15時(UTC)から 17日の 18時(UTC)まで徐々に
西/南西の風 5kt

TAF: RJFR 161109Z 1612/1718 35008KT 9999 FEW030 BECMG 1715/1718 24005KT

4,000以上の空港の気象観測と天気予報(METAR報とTAF報)

利用可能な観測所は地図上に黄色い丸と赤い丸で示す。

丸の上にカーソルを重ねると観測所名を参照できる。

次にクリックすると気象観測と天気予報を参照できる。

マップの切り替え:黒色「×」印の緑ボタンをクリックして拡大、「-」印の緑ボタンをクリックして縮小、緑色の三角印をクリックして隣りの地図に切り替え


METAR-TAF: